Kissimmee, FL

4:51 AM EDT on October 02, 2014 (GMT -0400)
OHP | Change Station
CLOSE
Current Station
Personal Weather Station
Location: Kissimmee, FL
Elevation: 82 ft
Nearby Weather Stations

Elev 82 ft 28.29 °N, 81.37 °W | Updated 4 minutes ago

Partly Cloudy
Partly Cloudy
74.5 °F
Feels Like 72 °F
N
3.0
Wind Variable Wind from ENE
Gusts 4.0 mph

Today
High -- | Low -- °F
--% Chance of Precip.
Yesterday
High -- | Low -- °F
Precip. -- in
7:19 AM 7:10 PM
First Quarter, 56% visible
Pressure 29.97 in
Visibility 10.0 miles
Clouds Few 1000 ft
Heat Index 72 °F
Dew Point 73 °F
Humidity 96%
Rainfall 0.00 in
Snow Depth Not available.
UV 0 out of 12
Pollen 6.70 out of 12
Air Quality Not available.
Flu Activity Not available.
METAR KMCO 020753Z 01005KT 10SM FEW010 23/23 A2997 RMK AO2 SLP148 T02330233

More Conditions Fewer Conditions

Pressure 29.97 in
Visibility 10.0 miles
Clouds Few 1000 ft
Heat Index 72 °F
Dew Point 73 °F
Humidity 96%
Rainfall 0.00 in
Snow Depth Not available.
UV 0 out of 12
Pollen 6.70 out of 12
Air Quality Not available.
Flu Activity Not available.
METAR KMCO 020753Z 01005KT 10SM FEW010 23/23 A2997 RMK AO2 SLP148 T02330233

More Conditions Fewer Conditions

10-Day Weather Forecast

Almanac

Astronomy

Oct. 02, 2014 Rise Set
Actual Time 7:19 AM EDT 7:10 PM EDT
Civil Twilight 6:55 AM EDT 7:33 PM EDT
Nautical Twilight 6:28 AM EDT 8:01 PM EDT
Astronomical Twilight 6:01 AM EDT 8:28 PM EDT
Moon 2:50 PM EDT 1:01 AM EDT
Length of Visible Light 12h 38m
Length of Day
11h 51m
Tomorrow will be 1m 40s shorter.
First Quarter, 56% of the Moon is Illuminated
Today
First Quarter
Oct 8
Full
Oct 15
Last Quarter
Oct 23
New
Oct 30
First Quarter

Today's Extremes

State Highs State Lows

Community

WunderPhotos

Upload Photos

1,758,196 photos uploaded!

WunderBlogs® & News

By Dr. Jeff Masters
Director of Meteorology, Weather Underground
By Kari Strenfel
Meteorologist, Weather Underground
By Christopher C. Burt
Weather Historian, Weather Underground
October 2, 2014
October 2, 2014
October 2, 2014

Nearby

Snow Depth

Station Depth Elevation
No new snow has been reported.

Earthquake Activity

City Distance Mag. Time & Date
No recent earthquake activity has been reported nearby.
Minimum magnitude displayed is 2.5.

Coastal Water Temperatures

Place Temperature
No Stations Reporting

Nearby Weather Stations